Time;durP1;ratioP1;P1;durP2;ratioP2;P2;SDS_P1;SDS_P2;PMS_P1;PMS_P2;Temp;Humidity;BMP_temperature;BMP_pressure;BME280_temperature;BME280_humidity;BME280_pressure;Samples;Min_cycle;Max_cycle;Signal;HPM_P1;HPM_P2
2020/12/20 00:00:58;;;;;;;10.20;8.33;;;;;;;6.08;87.08;152923.97;5060606;28;20442;-90
2020/12/20 00:03:33;;;;;;;9.97;8.50;;;;;;;6.06;87.00;152918.78;5055669;28;20438;-89
2020/12/20 00:06:09;;;;;;;8.90;8.00;;;;;;;6.02;86.93;152908.50;5054458;28;20510;-89
2020/12/20 00:08:46;;;;;;;11.03;7.50;;;;;;;6.02;87.43;152908.50;5054151;28;20828;-89
2020/12/20 00:11:21;;;;;;;9.43;8.30;;;;;;;5.98;85.96;152898.16;5054616;28;20449;-90
2020/12/20 00:13:56;;;;;;;10.80;9.10;;;;;;;6.02;89.68;152908.50;5036976;28;20442;-89
2020/12/20 00:16:32;;;;;;;10.57;7.80;;;;;;;5.97;87.83;152894.28;5042887;28;20454;-89
2020/12/20 00:19:08;;;;;;;9.20;8.23;;;;;;;5.95;87.04;152889.16;5045354;28;20437;-90
2020/12/20 00:21:44;;;;;;;9.70;8.63;;;;;;;5.98;88.96;152898.16;5041051;28;20453;-89
2020/12/20 00:24:20;;;;;;;8.90;8.00;;;;;;;5.94;87.99;152887.84;5036058;28;20987;-90
2020/12/20 00:26:55;;;;;;;8.73;7.83;;;;;;;5.99;90.15;152900.75;5051266;28;20454;-90
2020/12/20 00:29:32;;;;;;;9.33;7.80;;;;;;;5.96;88.46;152891.69;5055364;28;20465;-89
2020/12/20 00:32:10;;;;;;;9.63;8.63;;;;;;;5.94;87.80;152887.84;5052983;28;20936;-90
2020/12/20 00:34:45;;;;;;;10.77;8.57;;;;;;;5.93;88.95;152885.25;5050358;28;20788;-90
2020/12/20 00:37:22;;;;;;;12.33;8.63;;;;;;;5.90;86.34;152877.56;5055916;28;20791;-90
2020/12/20 00:39:57;;;;;;;9.70;8.17;;;;;;;5.89;86.43;152874.97;5068278;28;20442;-89
2020/12/20 00:42:32;;;;;;;11.30;8.70;;;;;;;5.91;88.55;152878.81;5043479;28;20451;-90
2020/12/20 00:45:08;;;;;;;9.23;8.10;;;;;;;5.91;90.17;152880.09;5026248;28;20546;-90
2020/12/20 00:47:43;;;;;;;9.63;8.13;;;;;;;5.88;89.88;152872.34;5054251;28;20453;-90
2020/12/20 00:50:19;;;;;;;10.10;9.10;;;;;;;5.88;90.57;152871.06;5043712;28;20473;-89
2020/12/20 00:52:55;;;;;;;9.80;8.00;;;;;;;5.85;89.18;152863.38;5039972;28;20807;-90
2020/12/20 00:55:30;;;;;;;10.63;8.40;;;;;;;5.83;89.45;152858.13;5020861;28;20437;-90
2020/12/20 00:58:06;;;;;;;10.73;8.53;;;;;;;5.81;88.99;152852.97;5060921;28;20433;-90
2020/12/20 01:00:41;;;;;;;10.80;8.60;;;;;;;5.81;88.63;152852.97;5053568;28;20449;-89
2020/12/20 01:03:17;;;;;;;9.30;8.23;;;;;;;5.83;90.50;152858.13;5055389;28;20498;-89
2020/12/20 01:05:52;;;;;;;11.80;8.00;;;;;;;5.83;88.35;152859.41;5039191;28;20507;-89
2020/12/20 01:08:29;;;;;;;8.93;8.00;;;;;;;5.84;89.58;152862.00;5037973;28;20450;-90
2020/12/20 01:11:06;;;;;;;11.03;9.70;;;;;;;5.81;87.41;152852.97;5039010;28;20450;-90
2020/12/20 01:13:42;;;;;;;8.90;7.93;;;;;;;5.80;89.14;152851.66;5040144;28;20449;-90
2020/12/20 01:16:19;;;;;;;10.47;8.97;;;;;;;5.77;87.82;152843.94;5043419;28;20447;-90
2020/12/20 01:18:54;;;;;;;9.47;8.30;;;;;;;5.82;89.71;152855.56;5052960;28;20438;-90
2020/12/20 01:21:29;;;;;;;11.97;9.17;;;;;;;5.79;88.96;152849.13;5040901;28;20446;-89
2020/12/20 01:24:06;;;;;;;10.70;8.57;;;;;;;5.73;86.40;152833.63;5063538;28;20472;-89
2020/12/20 01:26:42;;;;;;;9.70;8.53;;;;;;;5.76;89.04;152841.38;5040047;28;20450;-90
2020/12/20 01:29:18;;;;;;;8.57;7.60;;;;;;;5.74;87.79;152836.22;5055225;28;20465;-89
2020/12/20 01:31:55;;;;;;;10.90;8.63;;;;;;;5.75;88.25;152837.47;5039905;28;20812;-89
2020/12/20 01:34:33;;;;;;;9.63;8.37;;;;;;;5.74;87.56;152834.94;5036508;28;20433;-88
2020/12/20 01:37:09;;;;;;;12.03;9.43;;;;;;;5.74;89.99;152834.94;5046717;28;20895;-90
2020/12/20 01:39:51;;;;;;;11.80;9.10;;;;;;;5.73;89.06;152832.34;5039885;28;20943;-90
2020/12/20 01:42:27;;;;;;;8.87;7.97;;;;;;;5.74;88.95;152836.22;5036933;28;20446;-89
2020/12/20 01:45:03;;;;;;;9.67;8.30;;;;;;;5.77;90.48;152843.94;5035701;28;20446;-89
2020/12/20 01:47:43;;;;;;;10.13;9.13;;;;;;;5.79;88.58;152849.13;5039121;28;20525;-90
2020/12/20 01:50:23;;;;;;;11.87;8.40;;;;;;;5.83;90.45;152859.41;5038700;28;20480;-90
2020/12/20 01:53:04;;;;;;;10.53;8.00;;;;;;;5.83;89.04;152859.41;5030460;28;20474;-88
2020/12/20 01:55:42;;;;;;;12.40;9.10;;;;;;;5.85;90.34;152864.63;5051753;28;20446;-90
2020/12/20 01:58:18;;;;;;;10.17;8.23;;;;;;;5.83;89.78;152859.41;5052164;28;20442;-90
2020/12/20 02:01:10;;;;;;;10.03;8.97;;;;;;;5.84;87.59;152860.72;5040435;28;20537;-89
2020/12/20 02:03:52;;;;;;;9.30;8.07;;;;;;;5.82;88.19;152855.56;5054943;28;20449;-90
2020/12/20 02:06:38;;;;;;;10.90;9.00;;;;;;;5.82;87.12;152856.88;5048422;28;20935;-90
2020/12/20 02:09:14;;;;;;;9.90;8.30;;;;;;;5.82;87.28;152856.88;5071929;28;20876;-89
2020/12/20 02:11:51;;;;;;;8.70;7.80;;;;;;;5.84;88.98;152862.00;5039752;28;20463;-90
2020/12/20 02:14:29;;;;;;;9.00;8.10;;;;;;;5.85;90.93;152864.63;5033248;28;20435;-90
2020/12/20 02:17:10;;;;;;;10.30;8.43;;;;;;;5.84;89.07;152862.00;5028983;28;20446;-90
2020/12/20 02:19:50;;;;;;;9.30;7.87;;;;;;;5.87;90.49;152868.50;5039499;28;20527;-90
2020/12/20 02:22:58;;;;;;;9.97;8.30;;;;;;;5.87;89.50;152868.50;5038510;28;20431;-90
2020/12/20 02:25:37;;;;;;;9.73;8.60;;;;;;;5.91;92.03;152880.09;5036874;28;20445;-89
2020/12/20 02:28:25;;;;;;;10.27;8.20;;;;;;;5.90;88.99;152877.56;5033289;28;20796;-89
2020/12/20 02:31:14;;;;;;;8.80;7.90;;;;;;;5.94;92.82;152887.84;5032840;28;20473;-89
2020/12/20 02:33:50;;;;;;;9.23;8.20;;;;;;;5.93;90.05;152885.25;5033662;28;20445;-89
2020/12/20 02:36:25;;;;;;;8.80;7.90;;;;;;;5.92;89.15;152881.41;5058268;28;20445;-91
2020/12/20 02:39:01;;;;;;;10.30;8.83;;;;;;;5.94;88.69;152887.84;5058277;28;20928;-89
2020/12/20 02:42:00;;;;;;;8.80;7.90;;;;;;;5.98;90.41;152898.16;5050906;28;20503;-90
2020/12/20 02:44:45;;;;;;;8.67;7.77;;;;;;;6.00;91.80;152903.34;5056519;28;20445;-90
2020/12/20 02:47:21;;;;;;;9.33;8.03;;;;;;;5.98;89.78;152896.91;5039809;28;20442;-90
2020/12/20 02:49:57;;;;;;;9.50;7.63;;;;;;;5.97;90.60;152895.59;5038859;28;20901;-90
2020/12/20 02:52:45;;;;;;;9.00;8.10;;;;;;;5.95;87.82;152890.44;5067568;28;20496;-90
2020/12/20 02:55:23;;;;;;;9.30;8.30;;;;;;;5.98;90.66;152896.91;5040991;28;20810;-90
2020/12/20 02:58:08;;;;;;;10.00;8.20;;;;;;;5.96;90.04;152891.69;5040294;28;20536;-89
2020/12/20 03:01:04;;;;;;;9.80;8.20;;;;;;;5.96;91.85;152891.69;5049626;28;20453;-90
2020/12/20 03:03:39;;;;;;;11.60;8.73;;;;;;;5.94;91.04;152887.84;5066385;28;20453;-90
2020/12/20 03:06:16;;;;;;;10.40;8.20;;;;;;;5.94;92.08;152887.84;5049981;28;20481;-90
2020/12/20 03:08:52;;;;;;;8.10;7.30;;;;;;;5.92;90.85;152881.41;5041350;28;20450;-90
2020/12/20 03:11:30;;;;;;;9.17;8.17;;;;;;;5.88;90.71;152871.06;5040433;28;20454;-90
2020/12/20 03:14:05;;;;;;;9.30;8.13;;;;;;;5.86;91.99;152867.22;5051919;28;20529;-89
2020/12/20 03:16:47;;;;;;;9.60;8.60;;;;;;;5.87;90.89;152869.81;5040546;28;20446;-89
2020/12/20 03:19:22;;;;;;;10.90;9.27;;;;;;;5.84;91.27;152862.00;5039862;28;20445;-90
2020/12/20 03:22:00;;;;;;;8.80;7.80;;;;;;;5.84;90.74;152862.00;5036547;28;20533;-90
2020/12/20 03:25:07;;;;;;;10.10;8.57;;;;;;;5.88;92.26;152871.06;5024217;28;20445;-90
2020/12/20 03:28:05;;;;;;;9.27;8.37;;;;;;;5.88;93.35;152871.06;5048981;28;20443;-90
2020/12/20 03:31:05;;;;;;;9.17;8.00;;;;;;;5.86;92.53;152867.22;5048911;28;20477;-90
2020/12/20 03:33:59;;;;;;;9.13;7.97;;;;;;;5.84;91.78;152862.00;5067025;28;20442;-90
2020/12/20 03:37:01;;;;;;;9.90;8.90;;;;;;;5.86;91.99;152867.22;5055953;28;20869;-90
2020/12/20 03:39:39;;;;;;;9.97;9.07;;;;;;;5.86;90.03;152865.91;5035857;28;20437;-90
2020/12/20 03:42:15;;;;;;;10.90;9.43;;;;;;;5.86;91.08;152867.22;5039133;28;20818;-90
2020/12/20 03:44:52;;;;;;;10.77;9.07;;;;;;;5.86;91.27;152867.22;5039558;28;20439;-90
2020/12/20 03:47:29;;;;;;;10.80;9.37;;;;;;;5.87;90.32;152869.81;5028360;28;20460;-89
2020/12/20 03:50:05;;;;;;;9.10;7.70;;;;;;;5.88;89.96;152871.06;5038219;28;20465;-90
2020/12/20 03:52:42;;;;;;;9.60;7.90;;;;;;;5.90;91.29;152877.56;5032691;28;20446;-90
2020/12/20 03:55:26;;;;;;;8.67;7.77;;;;;;;5.92;90.84;152882.69;5037286;28;20836;-90
2020/12/20 03:58:02;;;;;;;9.20;8.23;;;;;;;5.94;91.98;152887.84;5040205;28;20457;-90
2020/12/20 04:00:39;;;;;;;10.13;9.13;;;;;;;5.95;91.55;152890.44;5039716;28;20814;-90
2020/12/20 04:03:25;;;;;;;9.20;8.20;;;;;;;5.97;92.67;152895.59;5032046;28;20534;-91
2020/12/20 04:06:01;;;;;;;10.43;9.20;;;;;;;5.98;93.08;152898.16;5036595;28;20462;-90
2020/12/20 04:08:37;;;;;;;8.50;7.70;;;;;;;6.00;91.44;152903.34;5039564;28;20445;-90
2020/12/20 04:11:33;;;;;;;9.00;8.10;;;;;;;6.01;91.10;152905.88;5058738;28;20860;-90
2020/12/20 04:14:09;;;;;;;9.17;8.20;;;;;;;6.03;90.51;152911.09;5039752;28;20449;-90
2020/12/20 04:16:48;;;;;;;9.83;8.60;;;;;;;6.04;91.40;152913.63;5037269;28;20877;-90
2020/12/20 04:19:26;;;;;;;11.80;8.93;;;;;;;6.03;90.15;152911.09;5037660;28;20833;-90
2020/12/20 04:22:09;;;;;;;8.87;7.97;;;;;;;6.04;93.06;152912.34;5048059;28;20944;-90
2020/12/20 04:25:20;;;;;;;9.83;8.80;;;;;;;6.04;93.90;152913.63;5007929;28;20433;-91
2020/12/20 04:28:18;;;;;;;10.47;9.40;;;;;;;6.01;93.82;152905.88;5054304;28;20892;-90
2020/12/20 04:30:54;;;;;;;11.37;9.07;;;;;;;5.97;92.91;152895.59;5039211;28;20568;-90
2020/12/20 04:33:39;;;;;;;10.67;8.57;;;;;;;5.94;92.67;152887.84;5044805;28;20442;-90
2020/12/20 04:36:21;;;;;;;10.10;9.03;;;;;;;5.91;92.03;152880.09;5058262;28;20462;-90
2020/12/20 04:38:58;;;;;;;10.83;8.60;;;;;;;5.92;92.62;152882.69;5047643;28;20450;-89
2020/12/20 04:41:36;;;;;;;9.93;8.93;;;;;;;5.90;93.19;152877.56;5047125;28;20450;-90
2020/12/20 04:44:15;;;;;;;9.40;8.43;;;;;;;5.88;94.72;152872.34;5063744;28;20536;-90
2020/12/20 04:46:58;;;;;;;10.83;9.57;;;;;;;5.84;90.63;152862.00;5038891;28;21045;-90
2020/12/20 04:49:46;;;;;;;9.50;8.50;;;;;;;5.88;92.59;152872.34;5037327;28;20469;-90
2020/12/20 04:52:33;;;;;;;9.30;8.40;;;;;;;5.87;93.48;152869.81;5039172;28;20446;-90
2020/12/20 04:55:10;;;;;;;10.30;9.10;;;;;;;5.86;91.41;152867.22;5030368;28;20443;-90
2020/12/20 04:58:12;;;;;;;10.17;8.57;;;;;;;5.85;91.99;152864.63;5053429;28;20449;-90
2020/12/20 05:00:47;;;;;;;11.90;8.47;;;;;;;5.85;92.23;152864.63;5063760;28;20438;-90
2020/12/20 05:03:26;;;;;;;11.13;8.53;;;;;;;5.86;91.02;152867.22;5046150;28;20445;-90
2020/12/20 05:06:03;;;;;;;10.77;8.50;;;;;;;5.84;92.36;152862.00;5038520;28;20473;-90
2020/12/20 05:08:40;;;;;;;11.07;8.40;;;;;;;5.87;91.49;152868.50;5035100;28;20454;-90
2020/12/20 05:11:31;;;;;;;10.17;8.07;;;;;;;5.87;91.70;152869.81;5055637;28;20948;-90
2020/12/20 05:14:08;;;;;;;8.70;7.70;;;;;;;5.87;92.10;152868.50;5033806;28;20447;-90
2020/12/20 05:16:57;;;;;;;9.40;7.47;;;;;;;5.84;91.02;152862.00;5036014;28;20480;-90
2020/12/20 05:19:34;;;;;;;10.10;8.97;;;;;;;5.83;88.86;152858.13;5038400;28;20877;-90
2020/12/20 05:22:18;;;;;;;8.80;7.90;;;;;;;5.86;91.67;152867.22;5057499;28;20468;-90
2020/12/20 05:25:15;;;;;;;10.73;8.67;;;;;;;5.84;89.96;152862.00;5026449;28;20438;-89
2020/12/20 05:27:50;;;;;;;9.40;7.80;;;;;;;5.83;90.86;152858.13;5039422;28;20835;-90
2020/12/20 05:30:36;;;;;;;10.57;8.90;;;;;;;5.84;90.38;152862.00;5024894;28;20465;-89
2020/12/20 05:33:32;;;;;;;9.87;8.30;;;;;;;5.85;90.17;152864.63;5056313;28;20446;-90
2020/12/20 05:36:25;;;;;;;8.73;7.80;;;;;;;5.84;89.23;152862.00;5043203;28;20430;-90
2020/12/20 05:39:16;;;;;;;8.20;7.23;;;;;;;5.93;86.36;152885.25;5046324;28;20434;-90
2020/12/20 05:41:56;;;;;;;9.47;8.47;;;;;;;5.92;89.45;152882.69;5039701;28;20438;-90
2020/12/20 05:44:32;;;;;;;9.10;7.70;;;;;;;5.91;90.75;152880.09;5046171;28;20492;-90
2020/12/20 05:47:12;;;;;;;10.43;7.70;;;;;;;5.89;90.55;152874.97;5037375;28;20830;-90
2020/12/20 05:49:53;;;;;;;10.40;8.27;;;;;;;5.85;88.79;152864.63;5024086;28;20477;-90
2020/12/20 05:52:28;;;;;;;7.83;7.00;;;;;;;5.86;89.28;152867.22;5069170;28;20438;-90
2020/12/20 05:55:11;;;;;;;9.40;7.93;;;;;;;5.87;88.59;152869.81;5046929;28;20438;-90
2020/12/20 05:57:46;;;;;;;9.37;7.70;;;;;;;5.88;88.77;152872.34;5040126;28;20454;-90
2020/12/20 06:00:21;;;;;;;7.73;6.93;;;;;;;5.88;89.05;152872.34;5049419;28;20870;-90
2020/12/20 06:02:57;;;;;;;8.57;7.43;;;;;;;5.86;86.43;152865.91;5054882;28;20446;-90
2020/12/20 06:05:37;;;;;;;9.47;7.20;;;;;;;5.87;88.36;152869.81;5034144;28;20470;-90
2020/12/20 06:08:13;;;;;;;7.90;6.93;;;;;;;5.85;88.83;152864.63;5024366;28;20455;-90
2020/12/20 06:10:51;;;;;;;9.13;7.80;;;;;;;5.83;88.18;152858.13;5009350;28;20462;-91
2020/12/20 06:13:30;;;;;;;9.83;7.27;;;;;;;5.84;90.10;152862.00;5023559;28;21239;-90
2020/12/20 06:16:09;;;;;;;9.00;7.70;;;;;;;5.84;89.65;152862.00;5023237;28;20430;-90
2020/12/20 06:18:50;;;;;;;8.17;7.37;;;;;;;5.80;88.12;152851.66;5023698;28;20538;-90
2020/12/20 06:21:26;;;;;;;11.10;7.10;;;;;;;5.76;86.90;152841.38;5035176;28;20795;-90
2020/12/20 06:24:02;;;;;;;8.50;7.47;;;;;;;5.80;90.97;152851.66;5035063;28;20522;-89
2020/12/20 06:26:44;;;;;;;10.33;8.10;;;;;;;5.77;89.06;152843.94;5031456;28;20439;-90
2020/12/20 06:29:23;;;;;;;8.27;7.43;;;;;;;5.74;89.97;152836.22;5038430;28;20431;-90
2020/12/20 06:32:00;;;;;;;7.67;6.80;;;;;;;5.70;90.11;152824.59;5038971;28;20454;-90
2020/12/20 06:34:39;;;;;;;8.60;7.40;;;;;;;5.67;89.79;152818.16;5018525;28;20439;-90
2020/12/20 06:37:18;;;;;;;8.33;7.53;;;;;;;5.66;90.39;152815.59;5036567;28;20487;-90
2020/12/20 06:39:53;;;;;;;7.80;6.97;;;;;;;5.64;89.33;152809.16;5056104;28;20431;-90
2020/12/20 06:42:40;;;;;;;9.17;7.43;;;;;;;5.64;89.65;152810.41;5038341;28;20446;-90
2020/12/20 06:45:18;;;;;;;7.83;7.03;;;;;;;5.61;90.63;152802.72;5037922;28;20431;-90
2020/12/20 06:47:54;;;;;;;9.50;7.00;;;;;;;5.60;90.45;152800.09;5031644;28;20447;-90
2020/12/20 06:50:42;;;;;;;8.23;7.37;;;;;;;5.59;89.89;152797.50;5022162;28;20503;-90
2020/12/20 06:53:18;;;;;;;7.63;6.93;;;;;;;5.58;90.94;152794.97;5022977;28;20509;-90
2020/12/20 06:55:53;;;;;;;9.00;7.30;;;;;;;5.60;93.18;152798.81;5037909;28;20937;-91
2020/12/20 06:58:34;;;;;;;8.93;7.70;;;;;;;5.60;89.24;152800.09;5038493;28;20477;-91
2020/12/20 07:01:09;;;;;;;8.90;7.53;;;;;;;5.58;89.91;152793.66;5037706;28;20474;-91
2020/12/20 07:03:45;;;;;;;8.27;7.47;;;;;;;5.55;90.01;152787.22;5037367;28;20554;-90
2020/12/20 07:06:20;;;;;;;9.37;7.60;;;;;;;5.58;91.83;152794.97;5058061;28;20458;-91
2020/12/20 07:08:58;;;;;;;9.30;7.53;;;;;;;5.59;94.27;152797.50;5058131;28;20450;-90
2020/12/20 07:11:41;;;;;;;8.30;7.33;;;;;;;5.56;91.38;152789.75;5053459;28;20521;-90
2020/12/20 07:14:20;;;;;;;10.20;8.10;;;;;;;5.59;91.76;152797.50;5044823;28;20456;-90
2020/12/20 07:16:56;;;;;;;8.70;7.60;;;;;;;5.59;92.13;152796.25;5052772;28;20438;-91
2020/12/20 07:19:31;;;;;;;9.33;7.63;;;;;;;5.54;90.73;152784.63;5075558;28;20410;-90
2020/12/20 07:22:06;;;;;;;9.83;8.30;;;;;;;5.54;90.86;152784.63;5064944;28;21101;-90
2020/12/20 07:24:42;;;;;;;8.50;7.70;;;;;;;5.57;90.96;152791.06;5072949;28;20442;-90
2020/12/20 07:27:17;;;;;;;10.63;8.00;;;;;;;5.53;89.71;152782.06;5073503;28;20517;-90
2020/12/20 07:29:53;;;;;;;9.97;8.70;;;;;;;5.53;92.19;152782.06;5048190;28;20454;-90
2020/12/20 07:32:29;;;;;;;9.47;8.50;;;;;;;5.52;92.45;152780.78;5057023;28;20478;-90
2020/12/20 07:35:05;;;;;;;7.70;6.90;;;;;;;5.50;92.07;152775.63;5045891;28;20480;-90
2020/12/20 07:37:51;;;;;;;11.10;7.93;;;;;;;5.51;91.85;152776.88;5037506;28;20446;-90
2020/12/20 07:40:27;;;;;;;11.70;8.27;;;;;;;5.51;92.26;152776.88;5044806;28;20453;-90
2020/12/20 07:43:03;;;;;;;8.93;8.00;;;;;;;5.51;91.69;152776.88;5057007;28;20457;-90
2020/12/20 07:45:39;;;;;;;9.13;7.87;;;;;;;5.54;92.12;152784.63;5056469;28;20449;-90
2020/12/20 07:48:23;;;;;;;10.50;9.00;;;;;;;5.50;91.91;152774.31;5033997;28;20430;-84
2020/12/20 07:51:07;;;;;;;9.60;8.00;;;;;;;5.51;91.13;152778.19;5062718;28;21001;-90
2020/12/20 07:53:47;;;;;;;10.00;8.60;;;;;;;5.52;91.61;152779.47;5038794;28;20809;-90
2020/12/20 07:56:24;;;;;;;10.87;8.53;;;;;;;5.53;91.13;152782.06;5041195;28;20802;-91
2020/12/20 07:59:01;;;;;;;11.60;8.00;;;;;;;5.54;91.12;152785.91;5050778;28;20517;-91
2020/12/20 08:01:38;;;;;;;9.27;8.30;;;;;;;5.60;92.19;152800.09;5048926;28;20426;-91
2020/12/20 08:04:15;;;;;;;9.20;7.50;;;;;;;5.63;93.05;152807.84;5056242;28;20434;-90
2020/12/20 08:06:52;;;;;;;10.17;8.50;;;;;;;5.65;91.30;152811.69;5056384;28;20489;-91
2020/12/20 08:09:27;;;;;;;8.67;7.20;;;;;;;5.68;93.18;152820.75;5055513;28;20445;-89
2020/12/20 08:12:03;;;;;;;10.17;8.20;;;;;;;5.72;92.65;152829.78;5056334;28;20912;-89
2020/12/20 08:14:38;;;;;;;10.70;7.90;;;;;;;5.74;91.90;152836.22;5073705;28;20425;-91
2020/12/20 08:17:19;;;;;;;9.70;7.77;;;;;;;5.78;90.70;152846.53;5040765;28;20445;-90
2020/12/20 08:19:55;;;;;;;9.43;8.43;;;;;;;5.84;92.01;152860.72;5036853;28;20513;-90
2020/12/20 08:22:34;;;;;;;8.37;7.53;;;;;;;5.85;89.95;152864.63;5056070;28;20438;-90
2020/12/20 08:25:10;;;;;;;9.00;8.10;;;;;;;5.88;89.33;152872.34;5074109;28;20454;-91
2020/12/20 08:27:46;;;;;;;10.50;8.13;;;;;;;5.91;89.34;152880.09;5056447;28;20831;-90
2020/12/20 08:30:24;;;;;;;9.03;7.43;;;;;;;5.96;87.29;152893.00;5056580;28;20817;-91
2020/12/20 08:33:00;;;;;;;8.00;7.20;;;;;;;6.04;87.99;152912.34;5055949;28;20453;-90
2020/12/20 08:35:35;;;;;;;9.30;8.17;;;;;;;6.07;87.55;152921.38;5055864;28;20422;-89
2020/12/20 08:38:11;;;;;;;9.43;7.30;;;;;;;6.10;87.35;152929.13;5040799;28;20457;-89
2020/12/20 08:40:46;;;;;;;8.77;7.87;;;;;;;6.14;88.76;152939.44;5040916;28;20438;-89
2020/12/20 08:43:24;;;;;;;9.13;7.57;;;;;;;6.14;86.81;152939.44;5055968;28;20972;-90
2020/12/20 08:45:59;;;;;;;9.47;7.60;;;;;;;6.17;88.13;152945.88;5033587;28;20447;-89
2020/12/20 08:48:35;;;;;;;8.80;7.47;;;;;;;6.22;88.70;152957.53;5042300;28;20489;-89
2020/12/20 08:51:11;;;;;;;8.27;6.90;;;;;;;6.26;88.93;152967.81;5029113;28;20465;-90
2020/12/20 08:53:46;;;;;;;10.40;8.40;;;;;;;6.25;90.32;152965.28;5040132;28;20533;-84
2020/12/20 08:56:22;;;;;;;11.13;8.27;;;;;;;6.24;88.54;152963.97;5056819;28;20453;-90
2020/12/20 08:58:58;;;;;;;8.60;7.70;;;;;;;6.26;88.12;152967.81;5074330;28;20430;-90
2020/12/20 09:01:42;;;;;;;10.50;8.50;;;;;;;6.26;89.10;152969.13;5055832;28;20430;-90
2020/12/20 09:04:18;;;;;;;14.80;8.97;;;;;;;6.24;87.83;152962.66;5040083;28;20438;-89
2020/12/20 09:06:58;;;;;;;9.10;7.90;;;;;;;6.24;87.64;152962.66;5036179;28;20482;-89
2020/12/20 09:09:34;;;;;;;9.57;8.47;;;;;;;6.25;88.28;152965.28;5035986;28;20959;-90
2020/12/20 09:12:20;;;;;;;8.93;8.03;;;;;;;6.27;88.46;152970.41;5036246;28;20427;-90
2020/12/20 09:15:11;;;;;;;9.80;8.03;;;;;;;6.29;89.96;152976.88;5035929;28;20471;-91
2020/12/20 09:17:48;;;;;;;9.93;8.93;;;;;;;6.35;88.98;152991.06;5020446;28;20766;-91
2020/12/20 09:20:27;;;;;;;9.70;8.67;;;;;;;6.40;88.64;153005.28;5020673;28;20493;-90
2020/12/20 09:23:02;;;;;;;10.73;9.50;;;;;;;6.48;88.74;153024.63;5020682;28;20442;-91
2020/12/20 09:25:38;;;;;;;8.47;7.63;;;;;;;6.59;89.14;153053.00;5018978;28;20455;-90
2020/12/20 09:28:15;;;;;;;9.53;8.53;;;;;;;6.65;87.69;153068.47;5036858;28;20454;-90
2020/12/20 09:30:51;;;;;;;9.80;8.63;;;;;;;6.71;85.93;153085.28;5024677;28;20458;-90
2020/12/20 09:33:29;;;;;;;12.00;9.07;;;;;;;6.81;87.24;153109.78;5038370;28;20435;-90
2020/12/20 09:36:07;;;;;;;11.57;9.10;;;;;;;6.88;89.34;153127.88;5034690;28;20962;-89
2020/12/20 09:38:44;;;;;;;10.10;9.03;;;;;;;6.94;88.30;153143.34;5056512;28;20797;-90
2020/12/20 09:41:21;;;;;;;12.57;10.50;;;;;;;7.01;88.04;153161.44;5039717;28;20438;-90
2020/12/20 09:43:56;;;;;;;9.10;8.17;;;;;;;7.08;86.10;153179.50;5034832;28;20542;-91
2020/12/20 09:46:34;;;;;;;10.00;8.50;;;;;;;7.14;84.92;153195.00;5031214;28;20929;-91
2020/12/20 09:49:09;;;;;;;10.03;8.13;;;;;;;7.23;84.98;153218.22;5039416;28;20443;-89
2020/12/20 09:51:45;;;;;;;12.87;9.03;;;;;;;7.29;84.73;153233.72;5057590;28;20465;-88
2020/12/20 09:54:21;;;;;;;9.67;8.03;;;;;;;7.35;84.79;153247.94;5024109;28;20431;-89
2020/12/20 09:56:56;;;;;;;10.63;8.77;;;;;;;7.42;85.52;153266.00;5013010;28;20446;-90
2020/12/20 09:59:32;;;;;;;9.50;8.23;;;;;;;7.45;85.28;153273.75;5039385;28;20454;-89
2020/12/20 10:02:07;;;;;;;10.70;9.30;;;;;;;7.49;84.56;153282.81;5057831;28;20439;-89
2020/12/20 10:04:42;;;;;;;10.00;9.00;;;;;;;7.53;84.52;153293.13;5057282;28;20431;-88
2020/12/20 10:07:18;;;;;;;9.87;8.60;;;;;;;7.57;85.25;153304.72;5057833;28;20437;-89
2020/12/20 10:09:54;;;;;;;10.80;8.47;;;;;;;7.60;84.73;153311.25;5049019;28;20502;-89
2020/12/20 10:12:29;;;;;;;10.53;9.30;;;;;;;7.60;83.92;153311.25;5069903;28;20465;-88
2020/12/20 10:15:04;;;;;;;10.53;8.83;;;;;;;7.61;85.18;153313.78;5072262;28;20464;-89
2020/12/20 10:17:40;;;;;;;9.70;8.67;;;;;;;7.61;83.56;153315.09;5065204;28;20441;-88
2020/12/20 10:20:15;;;;;;;12.13;9.40;;;;;;;7.63;85.13;153318.94;5060323;28;20432;-89
2020/12/20 10:22:51;;;;;;;10.13;9.03;;;;;;;7.66;84.27;153326.72;5059756;28;20800;-89
2020/12/20 10:25:26;;;;;;;9.63;8.63;;;;;;;7.68;86.41;153333.16;5054519;28;21005;-89
2020/12/20 10:28:02;;;;;;;8.50;7.60;;;;;;;7.68;83.89;153331.84;5058218;28;20444;-89
2020/12/20 10:30:38;;;;;;;8.33;7.53;;;;;;;7.69;84.12;153334.47;5057975;28;20464;-90
2020/12/20 10:33:14;;;;;;;9.50;8.47;;;;;;;7.69;83.43;153335.75;5044768;28;20460;-91
2020/12/20 10:35:49;;;;;;;8.50;7.60;;;;;;;7.71;83.50;153339.63;5043153;28;20433;-90
2020/12/20 10:38:25;;;;;;;9.50;8.33;;;;;;;7.71;83.45;153339.63;5042987;28;20429;-90
2020/12/20 10:41:00;;;;;;;11.63;8.20;;;;;;;7.76;85.67;153352.53;5059884;28;20457;-91
2020/12/20 10:43:35;;;;;;;10.70;8.50;;;;;;;7.76;83.58;153352.53;5055914;28;20457;-90
2020/12/20 10:46:12;;;;;;;9.70;8.70;;;;;;;7.75;83.27;153349.97;5058212;28;20436;-89
2020/12/20 10:48:47;;;;;;;9.57;8.10;;;;;;;7.76;84.06;153352.53;5074915;28;20445;-90
2020/12/20 10:51:22;;;;;;;9.83;8.83;;;;;;;7.78;84.10;153357.72;5075331;28;20461;-88
2020/12/20 10:53:59;;;;;;;9.23;8.33;;;;;;;7.77;85.68;153355.13;5057230;28;20885;-89
2020/12/20 10:56:34;;;;;;;9.70;7.70;;;;;;;7.77;84.49;153356.44;5042749;28;20478;-89
2020/12/20 10:59:09;;;;;;;8.50;7.60;;;;;;;7.80;84.66;153362.88;5067076;28;20446;-89
2020/12/20 11:01:44;;;;;;;10.33;9.30;;;;;;;7.83;84.75;153370.66;5033012;28;20579;-89
2020/12/20 11:04:20;;;;;;;11.20;8.70;;;;;;;7.88;84.51;153383.56;5057571;28;20437;-89
2020/12/20 11:06:56;;;;;;;11.37;8.57;;;;;;;7.91;83.94;153391.31;5057753;28;20497;-88
2020/12/20 11:09:33;;;;;;;10.30;8.80;;;;;;;7.97;84.06;153406.78;5032790;28;20967;-89
2020/12/20 11:12:08;;;;;;;10.50;9.17;;;;;;;8.00;83.14;153414.53;5037519;28;20474;-89
2020/12/20 11:14:44;;;;;;;11.63;9.63;;;;;;;8.06;84.03;153430.06;5056842;28;20465;-89
2020/12/20 11:17:20;;;;;;;10.00;9.00;;;;;;;8.09;84.31;153436.53;5042190;28;20449;-89
2020/12/20 11:19:55;;;;;;;13.07;8.87;;;;;;;8.13;83.78;153448.13;5041887;28;20430;-89
2020/12/20 11:22:30;;;;;;;9.80;8.80;;;;;;;8.19;84.14;153462.38;5057348;28;20795;-89
2020/12/20 11:25:06;;;;;;;11.50;8.07;;;;;;;8.25;83.52;153477.88;5041060;28;20453;-89
2020/12/20 11:27:42;;;;;;;9.53;8.60;;;;;;;8.33;83.38;153499.91;5042618;28;20449;-89
2020/12/20 11:30:17;;;;;;;11.57;8.10;;;;;;;8.40;83.58;153516.69;5074942;28;20453;-90
2020/12/20 11:32:53;;;;;;;9.17;8.20;;;;;;;8.49;83.68;153541.28;5058236;28;20840;-89
2020/12/20 11:35:28;;;;;;;9.13;7.80;;;;;;;8.54;83.49;153552.91;5057297;28;20797;-90
2020/12/20 11:38:03;;;;;;;10.40;8.50;;;;;;;8.64;82.13;153577.44;5057314;28;20556;-89
2020/12/20 11:40:40;;;;;;;9.07;7.10;;;;;;;8.71;82.65;153595.56;5052345;28;20529;-89
2020/12/20 11:43:15;;;;;;;8.60;7.70;;;;;;;8.73;81.12;153602.03;5022130;28;20989;-89
2020/12/20 11:45:50;;;;;;;8.97;8.07;;;;;;;8.79;81.30;153616.25;5040872;28;20437;-90
2020/12/20 11:48:26;;;;;;;8.00;7.20;;;;;;;8.84;81.27;153630.44;5049670;28;20457;-90
2020/12/20 11:51:02;;;;;;;9.77;7.40;;;;;;;8.93;79.47;153652.44;5040560;28;20461;-89
2020/12/20 11:53:37;;;;;;;9.53;7.80;;;;;;;8.98;79.92;153665.34;5055691;28;20440;-89
2020/12/20 11:56:15;;;;;;;9.10;7.10;;;;;;;8.99;79.44;153667.97;5041103;28;20441;-90
2020/12/20 11:58:50;;;;;;;9.00;7.33;;;;;;;9.03;79.19;153678.28;5057079;28;20473;-89
2020/12/20 12:01:27;;;;;;;8.20;7.20;;;;;;;9.05;78.84;153683.50;5058475;28;20427;-88
2020/12/20 12:04:03;;;;;;;8.80;7.87;;;;;;;9.08;79.04;153691.25;5057586;28;20434;-88
2020/12/20 12:06:41;;;;;;;12.20;8.27;;;;;;;9.08;78.95;153691.25;5056310;28;20473;-89
2020/12/20 12:09:16;;;;;;;8.93;7.90;;;;;;;9.14;78.85;153708.03;5041733;28;20525;-89
2020/12/20 12:11:52;;;;;;;10.33;8.20;;;;;;;9.15;79.21;153709.34;5064970;28;20481;-89
2020/12/20 12:14:28;;;;;;;8.20;7.37;;;;;;;9.17;79.48;153714.50;5068616;28;20962;-88
2020/12/20 12:17:03;;;;;;;8.77;7.87;;;;;;;9.20;79.84;153722.28;5060415;28;20422;-88
2020/12/20 12:19:38;;;;;;;9.40;7.80;;;;;;;9.23;79.96;153730.03;5055742;28;20449;-88
2020/12/20 12:22:14;;;;;;;9.60;8.70;;;;;;;9.23;80.68;153730.03;5040892;28;20790;-90